Terminal Aerodrome Forecast
Issued by NWS Paducah, KY

Home | Current Version | Previous Version | Text Only | Print | Product List | Glossary On
Versions: 1 2 3 4 5 6 7 8 9 10 11 12 13 14 15 16 17
000
FTUS43 KPAH 231720
TAFEVV
TAF
KEVV 231720Z 2318/2418 VRB05KT P6SM SCT120 BKN250
     FM240000 VRB05KT P6SM SCT040 BKN120
     FM240600 29005KT 6SM -SHRA SCT020 OVC040
     FM240900 30005KT 5SM BR VCSH SCT010 OVC020
     FM241200 30006KT 6SM -SHRA OVC010
     FM241500 30007KT P6SM VCSH SCT015 BKN025=

USA.gov is the U.S. government's official web portal to all federal, state and local government web resources and services.